sensor_id;sensor_type;location;lat;lon;timestamp;temperature;humidity
74946;HTU21D;63509;45.250;38.102;2023-07-20T00:02:26;20.78;65.82
74946;HTU21D;63509;45.250;38.102;2023-07-20T00:04:52;20.79;65.87
74946;HTU21D;63509;45.250;38.102;2023-07-20T00:07:18;20.84;65.88
74946;HTU21D;63509;45.250;38.102;2023-07-20T00:09:44;20.84;65.84
74946;HTU21D;63509;45.250;38.102;2023-07-20T00:12:10;20.80;65.80
74946;HTU21D;63509;45.250;38.102;2023-07-20T00:14:36;20.74;65.79
74946;HTU21D;63509;45.250;38.102;2023-07-20T00:17:02;20.71;65.95
74946;HTU21D;63509;45.250;38.102;2023-07-20T00:19:29;20.71;66.12
74946;HTU21D;63509;45.250;38.102;2023-07-20T00:21:56;20.71;66.11
74946;HTU21D;63509;45.250;38.102;2023-07-20T00:24:23;20.73;66.15
74946;HTU21D;63509;45.250;38.102;2023-07-20T00:26:49;20.75;66.19
74946;HTU21D;63509;45.250;38.102;2023-07-20T00:29:16;0.00;66.14
74946;HTU21D;63509;45.250;38.102;2023-07-20T00:31:42;20.79;66.23
74946;HTU21D;63509;45.250;38.102;2023-07-20T00:34:09;20.79;66.24
74946;HTU21D;63509;45.250;38.102;2023-07-20T00:36:35;20.81;66.25
74946;HTU21D;63509;45.250;38.102;2023-07-20T00:39:02;20.81;66.27
74946;HTU21D;63509;45.250;38.102;2023-07-20T00:41:29;20.83;66.24
74946;HTU21D;63509;45.250;38.102;2023-07-20T00:43:56;20.81;66.27
74946;HTU21D;63509;45.250;38.102;2023-07-20T00:46:23;20.81;66.28
74946;HTU21D;63509;45.250;38.102;2023-07-20T00:48:53;20.81;66.29
74946;HTU21D;63509;45.250;38.102;2023-07-20T00:51:21;20.83;66.26
74946;HTU21D;63509;45.250;38.102;2023-07-20T00:53:49;20.84;66.32
74946;HTU21D;63509;45.250;38.102;2023-07-20T00:56:15;20.86;66.33
74946;HTU21D;63509;45.250;38.102;2023-07-20T00:58:42;20.85;66.35
74946;HTU21D;63509;45.250;38.102;2023-07-20T01:01:08;20.86;66.37
74946;HTU21D;63509;45.250;38.102;2023-07-20T01:03:34;20.86;66.41
74946;HTU21D;63509;45.250;38.102;2023-07-20T01:08:43;20.85;66.11
74946;HTU21D;63509;45.250;38.102;2023-07-20T01:11:22;20.81;66.26
74946;HTU21D;63509;45.250;38.102;2023-07-20T01:13:50;20.81;66.40
74946;HTU21D;63509;45.250;38.102;2023-07-20T01:16:16;20.79;66.46
74946;HTU21D;63509;45.250;38.102;2023-07-20T01:18:43;20.77;66.47
74946;HTU21D;63509;45.250;38.102;2023-07-20T01:21:13;20.76;66.41
74946;HTU21D;63509;45.250;38.102;2023-07-20T01:24:05;20.76;66.33
74946;HTU21D;63509;45.250;38.102;2023-07-20T01:29:43;20.68;66.03
74946;HTU21D;63509;45.250;38.102;2023-07-20T01:32:19;20.62;66.37
74946;HTU21D;63509;45.250;38.102;2023-07-20T01:34:49;20.62;66.46
74946;HTU21D;63509;45.250;38.102;2023-07-20T01:37:19;20.61;66.53
74946;HTU21D;63509;45.250;38.102;2023-07-20T01:39:46;20.62;66.59
74946;HTU21D;63509;45.250;38.102;2023-07-20T01:42:12;20.61;66.62
74946;HTU21D;63509;45.250;38.102;2023-07-20T01:44:38;20.60;66.62
74946;HTU21D;63509;45.250;38.102;2023-07-20T01:47:04;20.59;66.68
74946;HTU21D;63509;45.250;38.102;2023-07-20T01:49:31;20.59;66.64
74946;HTU21D;63509;45.250;38.102;2023-07-20T01:51:58;20.59;66.72
74946;HTU21D;63509;45.250;38.102;2023-07-20T01:54:25;20.59;66.72
74946;HTU21D;63509;45.250;38.102;2023-07-20T01:56:51;20.56;66.67
74946;HTU21D;63509;45.250;38.102;2023-07-20T01:59:17;20.56;66.74
74946;HTU21D;63509;45.250;38.102;2023-07-20T02:01:44;20.55;66.82
74946;HTU21D;63509;45.250;38.102;2023-07-20T02:04:11;20.55;66.84
74946;HTU21D;63509;45.250;38.102;2023-07-20T02:06:37;20.56;66.84
74946;HTU21D;63509;45.250;38.102;2023-07-20T02:09:03;20.54;66.83
74946;HTU21D;63509;45.250;38.102;2023-07-20T02:11:31;20.50;66.91
74946;HTU21D;63509;45.250;38.102;2023-07-20T02:13:57;20.48;66.94
74946;HTU21D;63509;45.250;38.102;2023-07-20T02:16:23;20.49;66.93
74946;HTU21D;63509;45.250;38.102;2023-07-20T02:18:49;20.49;66.91
74946;HTU21D;63509;45.250;38.102;2023-07-20T02:21:15;20.47;66.96
74946;HTU21D;63509;45.250;38.102;2023-07-20T02:23:41;20.47;67.04
74946;HTU21D;63509;45.250;38.102;2023-07-20T02:26:14;20.49;66.95
74946;HTU21D;63509;45.250;38.102;2023-07-20T02:28:40;20.53;67.04
74946;HTU21D;63509;45.250;38.102;2023-07-20T02:31:11;20.53;66.93
74946;HTU21D;63509;45.250;38.102;2023-07-20T02:33:37;20.55;67.06
74946;HTU21D;63509;45.250;38.102;2023-07-20T02:36:03;20.58;67.07
74946;HTU21D;63509;45.250;38.102;2023-07-20T02:38:29;20.62;67.07
74946;HTU21D;63509;45.250;38.102;2023-07-20T02:40:55;20.62;67.05
74946;HTU21D;63509;45.250;38.102;2023-07-20T02:43:22;20.62;67.07
74946;HTU21D;63509;45.250;38.102;2023-07-20T02:45:49;20.63;67.11
74946;HTU21D;63509;45.250;38.102;2023-07-20T02:48:16;20.65;67.09
74946;HTU21D;63509;45.250;38.102;2023-07-20T02:50:43;20.65;67.06
74946;HTU21D;63509;45.250;38.102;2023-07-20T02:53:09;20.68;67.01
74946;HTU21D;63509;45.250;38.102;2023-07-20T02:55:38;20.62;66.98
74946;HTU21D;63509;45.250;38.102;2023-07-20T02:58:04;20.55;67.03
74946;HTU21D;63509;45.250;38.102;2023-07-20T03:00:31;20.49;67.14
74946;HTU21D;63509;45.250;38.102;2023-07-20T03:02:57;20.45;67.14
74946;HTU21D;63509;45.250;38.102;2023-07-20T03:05:23;20.43;67.15
74946;HTU21D;63509;45.250;38.102;2023-07-20T03:07:54;20.40;67.27
74946;HTU21D;63509;45.250;38.102;2023-07-20T03:10:21;20.40;67.32
74946;HTU21D;63509;45.250;38.102;2023-07-20T03:12:47;20.40;67.36
74946;HTU21D;63509;45.250;38.102;2023-07-20T03:15:13;20.42;67.35
74946;HTU21D;63509;45.250;38.102;2023-07-20T03:17:39;20.40;67.38
74946;HTU21D;63509;45.250;38.102;2023-07-20T03:20:06;20.40;67.39
74946;HTU21D;63509;45.250;38.102;2023-07-20T03:22:35;20.39;67.44
74946;HTU21D;63509;45.250;38.102;2023-07-20T03:25:01;20.40;67.49
74946;HTU21D;63509;45.250;38.102;2023-07-20T03:27:27;20.42;67.50
74946;HTU21D;63509;45.250;38.102;2023-07-20T03:29:55;20.44;67.56
74946;HTU21D;63509;45.250;38.102;2023-07-20T03:32:21;20.43;67.55
74946;HTU21D;63509;45.250;38.102;2023-07-20T03:34:47;20.45;67.64
74946;HTU21D;63509;45.250;38.102;2023-07-20T03:37:14;20.45;67.65
74946;HTU21D;63509;45.250;38.102;2023-07-20T03:39:40;20.47;67.68
74946;HTU21D;63509;45.250;38.102;2023-07-20T03:42:07;20.50;67.75
74946;HTU21D;63509;45.250;38.102;2023-07-20T03:44:33;20.57;67.77
74946;HTU21D;63509;45.250;38.102;2023-07-20T03:47:00;20.62;67.78
74946;HTU21D;63509;45.250;38.102;2023-07-20T03:49:26;20.69;67.82
74946;HTU21D;63509;45.250;38.102;2023-07-20T03:51:53;20.73;67.81
74946;HTU21D;63509;45.250;38.102;2023-07-20T03:54:19;20.80;67.97
74946;HTU21D;63509;45.250;38.102;2023-07-20T03:56:45;20.85;68.01
74946;HTU21D;63509;45.250;38.102;2023-07-20T03:59:11;20.95;68.23
74946;HTU21D;63509;45.250;38.102;2023-07-20T04:01:38;21.03;68.26
74946;HTU21D;63509;45.250;38.102;2023-07-20T04:04:07;21.14;68.49
74946;HTU21D;63509;45.250;38.102;2023-07-20T04:06:38;21.22;68.70
74946;HTU21D;63509;45.250;38.102;2023-07-20T04:09:04;21.33;68.91
74946;HTU21D;63509;45.250;38.102;2023-07-20T04:11:33;21.44;69.09
74946;HTU21D;63509;45.250;38.102;2023-07-20T04:13:59;21.53;69.20
74946;HTU21D;63509;45.250;38.102;2023-07-20T04:16:26;21.64;69.37
74946;HTU21D;63509;45.250;38.102;2023-07-20T04:18:55;21.76;69.52
74946;HTU21D;63509;45.250;38.102;2023-07-20T04:21:22;21.88;69.76
74946;HTU21D;63509;45.250;38.102;2023-07-20T04:23:49;21.99;69.97
74946;HTU21D;63509;45.250;38.102;2023-07-20T04:26:15;22.12;70.20
74946;HTU21D;63509;45.250;38.102;2023-07-20T04:28:41;22.24;70.42
74946;HTU21D;63509;45.250;38.102;2023-07-20T04:31:18;22.38;70.48
74946;HTU21D;63509;45.250;38.102;2023-07-20T04:33:44;22.52;70.77
74946;HTU21D;63509;45.250;38.102;2023-07-20T04:36:11;22.66;70.93
74946;HTU21D;63509;45.250;38.102;2023-07-20T04:38:38;22.83;71.17
74946;HTU21D;63509;45.250;38.102;2023-07-20T04:41:18;23.02;71.34
74946;HTU21D;63509;45.250;38.102;2023-07-20T04:43:48;23.24;71.52
74946;HTU21D;63509;45.250;38.102;2023-07-20T04:46:20;23.44;71.64
74946;HTU21D;63509;45.250;38.102;2023-07-20T04:48:50;23.62;71.68
74946;HTU21D;63509;45.250;38.102;2023-07-20T04:51:17;23.82;71.07
74946;HTU21D;63509;45.250;38.102;2023-07-20T04:53:49;24.02;70.61
74946;HTU21D;63509;45.250;38.102;2023-07-20T04:56:15;24.21;70.83
74946;HTU21D;63509;45.250;38.102;2023-07-20T04:58:42;24.39;69.74
74946;HTU21D;63509;45.250;38.102;2023-07-20T05:01:08;24.53;69.20
74946;HTU21D;63509;45.250;38.102;2023-07-20T05:03:36;24.63;69.11
74946;HTU21D;63509;45.250;38.102;2023-07-20T05:06:02;24.79;68.71
74946;HTU21D;63509;45.250;38.102;2023-07-20T05:08:28;24.93;68.14
74946;HTU21D;63509;45.250;38.102;2023-07-20T05:10:54;25.09;67.70
74946;HTU21D;63509;45.250;38.102;2023-07-20T05:13:21;25.21;67.14
74946;HTU21D;63509;45.250;38.102;2023-07-20T05:15:51;25.31;66.60
74946;HTU21D;63509;45.250;38.102;2023-07-20T05:18:19;25.40;66.17
74946;HTU21D;63509;45.250;38.102;2023-07-20T05:20:47;25.48;65.77
74946;HTU21D;63509;45.250;38.102;2023-07-20T05:23:14;25.56;65.59
74946;HTU21D;63509;45.250;38.102;2023-07-20T05:25:41;25.69;65.26
74946;HTU21D;63509;45.250;38.102;2023-07-20T05:28:07;25.81;64.76
74946;HTU21D;63509;45.250;38.102;2023-07-20T05:30:33;25.88;64.34
74946;HTU21D;63509;45.250;38.102;2023-07-20T05:33:02;25.95;64.00
74946;HTU21D;63509;45.250;38.102;2023-07-20T05:35:29;26.03;63.67
74946;HTU21D;63509;45.250;38.102;2023-07-20T05:37:55;26.15;63.48
74946;HTU21D;63509;45.250;38.102;2023-07-20T05:40:21;26.27;63.01
74946;HTU21D;63509;45.250;38.102;2023-07-20T05:42:48;26.35;62.65
74946;HTU21D;63509;45.250;38.102;2023-07-20T05:45:17;26.41;62.47
74946;HTU21D;63509;45.250;38.102;2023-07-20T05:47:44;26.54;62.07
74946;HTU21D;63509;45.250;38.102;2023-07-20T05:50:10;26.66;62.10
74946;HTU21D;63509;45.250;38.102;2023-07-20T05:52:36;26.85;61.96
74946;HTU21D;63509;45.250;38.102;2023-07-20T05:55:04;27.02;62.33
74946;HTU21D;63509;45.250;38.102;2023-07-20T05:57:31;27.27;61.91
74946;HTU21D;63509;45.250;38.102;2023-07-20T05:59:57;27.56;61.44
74946;HTU21D;63509;45.250;38.102;2023-07-20T06:02:24;27.83;61.05
74946;HTU21D;63509;45.250;38.102;2023-07-20T06:04:50;28.08;60.32
74946;HTU21D;63509;45.250;38.102;2023-07-20T06:07:17;28.23;59.73
74946;HTU21D;63509;45.250;38.102;2023-07-20T06:09:43;28.31;59.48
74946;HTU21D;63509;45.250;38.102;2023-07-20T06:12:10;28.45;59.06
74946;HTU21D;63509;45.250;38.102;2023-07-20T06:14:36;28.59;58.54
74946;HTU21D;63509;45.250;38.102;2023-07-20T06:17:02;28.69;58.32
74946;HTU21D;63509;45.250;38.102;2023-07-20T06:19:29;28.75;57.89
74946;HTU21D;63509;45.250;38.102;2023-07-20T06:21:55;28.77;57.63
74946;HTU21D;63509;45.250;38.102;2023-07-20T06:24:21;28.82;57.36
74946;HTU21D;63509;45.250;38.102;2023-07-20T06:26:47;28.84;57.22
74946;HTU21D;63509;45.250;38.102;2023-07-20T06:29:16;28.86;56.97
74946;HTU21D;63509;45.250;38.102;2023-07-20T06:31:42;28.82;56.72
74946;HTU21D;63509;45.250;38.102;2023-07-20T06:34:08;28.85;56.58
74946;HTU21D;63509;45.250;38.102;2023-07-20T06:36:34;29.01;56.48
74946;HTU21D;63509;45.250;38.102;2023-07-20T06:39:01;29.21;56.17
74946;HTU21D;63509;45.250;38.102;2023-07-20T06:41:28;29.42;55.90
74946;HTU21D;63509;45.250;38.102;2023-07-20T06:43:54;29.61;55.43
74946;HTU21D;63509;45.250;38.102;2023-07-20T06:46:27;29.81;55.42
74946;HTU21D;63509;45.250;38.102;2023-07-20T06:48:56;30.03;55.02
74946;HTU21D;63509;45.250;38.102;2023-07-20T06:51:22;30.24;54.53
74946;HTU21D;63509;45.250;38.102;2023-07-20T06:53:49;30.40;54.03
74946;HTU21D;63509;45.250;38.102;2023-07-20T06:56:15;30.44;53.63
74946;HTU21D;63509;45.250;38.102;2023-07-20T06:58:41;30.48;53.52
74946;HTU21D;63509;45.250;38.102;2023-07-20T07:01:08;30.66;53.52
74946;HTU21D;63509;45.250;38.102;2023-07-20T07:03:35;30.90;53.06
74946;HTU21D;63509;45.250;38.102;2023-07-20T07:06:02;31.01;52.46
74946;HTU21D;63509;45.250;38.102;2023-07-20T07:08:29;31.00;52.25
74946;HTU21D;63509;45.250;38.102;2023-07-20T07:10:55;31.05;52.02
74946;HTU21D;63509;45.250;38.102;2023-07-20T07:13:22;31.21;52.04
74946;HTU21D;63509;45.250;38.102;2023-07-20T07:15:48;31.43;51.52
74946;HTU21D;63509;45.250;38.102;2023-07-20T07:18:15;31.58;50.99
74946;HTU21D;63509;45.250;38.102;2023-07-20T07:20:41;31.65;50.89
74946;HTU21D;63509;45.250;38.102;2023-07-20T07:23:07;31.81;50.73
74946;HTU21D;63509;45.250;38.102;2023-07-20T07:25:34;32.05;50.32
74946;HTU21D;63509;45.250;38.102;2023-07-20T07:28:00;32.33;49.85
74946;HTU21D;63509;45.250;38.102;2023-07-20T07:30:26;32.60;49.33
74946;HTU21D;63509;45.250;38.102;2023-07-20T07:32:52;32.83;48.77
74946;HTU21D;63509;45.250;38.102;2023-07-20T07:35:18;33.03;48.40
74946;HTU21D;63509;45.250;38.102;2023-07-20T07:37:45;33.31;47.92
74946;HTU21D;63509;45.250;38.102;2023-07-20T07:40:12;33.58;47.36
74946;HTU21D;63509;45.250;38.102;2023-07-20T07:42:38;33.75;46.68
74946;HTU21D;63509;45.250;38.102;2023-07-20T07:45:05;33.90;46.21
74946;HTU21D;63509;45.250;38.102;2023-07-20T07:47:31;34.09;45.91
74946;HTU21D;63509;45.250;38.102;2023-07-20T07:49:57;34.29;45.40
74946;HTU21D;63509;45.250;38.102;2023-07-20T07:52:23;34.50;44.77
74946;HTU21D;63509;45.250;38.102;2023-07-20T07:54:50;34.68;44.33
74946;HTU21D;63509;45.250;38.102;2023-07-20T07:57:16;34.80;43.77
74946;HTU21D;63509;45.250;38.102;2023-07-20T07:59:42;34.94;43.61
74946;HTU21D;63509;45.250;38.102;2023-07-20T08:02:08;35.12;42.98
74946;HTU21D;63509;45.250;38.102;2023-07-20T08:04:34;35.19;42.37
74946;HTU21D;63509;45.250;38.102;2023-07-20T08:07:05;35.22;42.53
74946;HTU21D;63509;45.250;38.102;2023-07-20T08:09:31;35.21;41.88
74946;HTU21D;63509;45.250;38.102;2023-07-20T08:12:00;35.13;41.33
74946;HTU21D;63509;45.250;38.102;2023-07-20T08:14:26;35.05;40.90
74946;HTU21D;63509;45.250;38.102;2023-07-20T08:16:52;34.83;40.75
74946;HTU21D;63509;45.250;38.102;2023-07-20T08:19:20;34.61;40.69
74946;HTU21D;63509;45.250;38.102;2023-07-20T08:21:46;34.37;40.75
74946;HTU21D;63509;45.250;38.102;2023-07-20T08:24:12;34.35;40.93
74946;HTU21D;63509;45.250;38.102;2023-07-20T08:26:38;34.36;40.50
74946;HTU21D;63509;45.250;38.102;2023-07-20T08:29:07;34.27;40.73
74946;HTU21D;63509;45.250;38.102;2023-07-20T08:31:34;34.33;40.55
74946;HTU21D;63509;45.250;38.102;2023-07-20T08:34:01;34.46;40.46
74946;HTU21D;63509;45.250;38.102;2023-07-20T08:36:27;34.65;40.38
74946;HTU21D;63509;45.250;38.102;2023-07-20T08:38:54;34.91;40.07
74946;HTU21D;63509;45.250;38.102;2023-07-20T08:41:20;35.13;39.71
74946;HTU21D;63509;45.250;38.102;2023-07-20T08:43:46;35.25;39.23
74946;HTU21D;63509;45.250;38.102;2023-07-20T08:46:13;35.23;39.38
74946;HTU21D;63509;45.250;38.102;2023-07-20T08:48:42;35.43;39.33
74946;HTU21D;63509;45.250;38.102;2023-07-20T08:51:10;35.72;38.91
74946;HTU21D;63509;45.250;38.102;2023-07-20T08:53:38;35.78;38.50
74946;HTU21D;63509;45.250;38.102;2023-07-20T08:56:05;35.73;38.39
74946;HTU21D;63509;45.250;38.102;2023-07-20T08:58:32;35.66;38.13
74946;HTU21D;63509;45.250;38.102;2023-07-20T09:01:01;35.52;38.04
74946;HTU21D;63509;45.250;38.102;2023-07-20T09:03:28;35.41;38.08
74946;HTU21D;63509;45.250;38.102;2023-07-20T09:05:54;35.41;38.04
74946;HTU21D;63509;45.250;38.102;2023-07-20T09:08:20;35.41;37.94
74946;HTU21D;63509;45.250;38.102;2023-07-20T09:10:46;35.30;37.74
74946;HTU21D;63509;45.250;38.102;2023-07-20T09:13:16;35.19;38.19
74946;HTU21D;63509;45.250;38.102;2023-07-20T09:15:46;35.16;38.21
74946;HTU21D;63509;45.250;38.102;2023-07-20T09:18:32;35.35;38.30
74946;HTU21D;63509;45.250;38.102;2023-07-20T09:21:04;35.57;38.01
74946;HTU21D;63509;45.250;38.102;2023-07-20T09:23:37;35.85;37.72
74946;HTU21D;63509;45.250;38.102;2023-07-20T09:26:12;35.97;37.30
74946;HTU21D;63509;45.250;38.102;2023-07-20T09:28:43;35.86;37.05
74946;HTU21D;63509;45.250;38.102;2023-07-20T09:31:18;35.77;37.18
74946;HTU21D;63509;45.250;38.102;2023-07-20T09:33:48;35.70;36.61
74946;HTU21D;63509;45.250;38.102;2023-07-20T09:36:14;35.67;36.47
74946;HTU21D;63509;45.250;38.102;2023-07-20T09:38:44;35.64;36.69
74946;HTU21D;63509;45.250;38.102;2023-07-20T09:41:15;35.71;36.73
74946;HTU21D;63509;45.250;38.102;2023-07-20T09:43:42;35.80;36.38
74946;HTU21D;63509;45.250;38.102;2023-07-20T09:46:08;35.99;36.21
74946;HTU21D;63509;45.250;38.102;2023-07-20T09:48:35;36.10;35.89
74946;HTU21D;63509;45.250;38.102;2023-07-20T09:51:04;36.23;35.91
74946;HTU21D;63509;45.250;38.102;2023-07-20T09:53:33;36.39;35.76
74946;HTU21D;63509;45.250;38.102;2023-07-20T09:55:59;36.46;36.93
74946;HTU21D;63509;45.250;38.102;2023-07-20T09:58:30;36.74;36.17
74946;HTU21D;63509;45.250;38.102;2023-07-20T10:01:00;36.87;35.64
74946;HTU21D;63509;45.250;38.102;2023-07-20T10:03:30;36.97;35.08
74946;HTU21D;63509;45.250;38.102;2023-07-20T10:06:00;37.06;34.95
74946;HTU21D;63509;45.250;38.102;2023-07-20T10:08:30;37.10;34.66
74946;HTU21D;63509;45.250;38.102;2023-07-20T10:10:59;37.23;34.54
74946;HTU21D;63509;45.250;38.102;2023-07-20T10:13:29;37.45;34.19
74946;HTU21D;63509;45.250;38.102;2023-07-20T10:16:11;37.67;34.09
74946;HTU21D;63509;45.250;38.102;2023-07-20T10:19:44;37.84;33.84
74946;HTU21D;63509;45.250;38.102;2023-07-20T10:22:00;37.88;33.66
74946;HTU21D;63509;45.250;38.102;2023-07-20T10:24:29;37.96;32.89
74946;HTU21D;63509;45.250;38.102;2023-07-20T10:26:58;38.06;32.73
74946;HTU21D;63509;45.250;38.102;2023-07-20T10:29:25;38.12;32.36
74946;HTU21D;63509;45.250;38.102;2023-07-20T10:31:54;38.19;32.28
74946;HTU21D;63509;45.250;38.102;2023-07-20T10:34:21;38.26;31.83
74946;HTU21D;63509;45.250;38.102;2023-07-20T10:36:48;38.40;31.58
74946;HTU21D;63509;45.250;38.102;2023-07-20T10:39:28;38.53;31.82
74946;HTU21D;63509;45.250;38.102;2023-07-20T10:44:27;38.32;31.15
74946;HTU21D;63509;45.250;38.102;2023-07-20T10:46:59;38.07;31.53
74946;HTU21D;63509;45.250;38.102;2023-07-20T10:49:26;37.96;31.10
74946;HTU21D;63509;45.250;38.102;2023-07-20T10:51:58;37.91;31.38
74946;HTU21D;63509;45.250;38.102;2023-07-20T10:56:55;38.07;30.90
74946;HTU21D;63509;45.250;38.102;2023-07-20T11:01:57;38.28;30.68
74946;HTU21D;63509;45.250;38.102;2023-07-20T11:04:40;38.44;30.49
74946;HTU21D;63509;45.250;38.102;2023-07-20T11:07:07;38.43;29.95
74946;HTU21D;63509;45.250;38.102;2023-07-20T11:09:34;38.47;29.83
74946;HTU21D;63509;45.250;38.102;2023-07-20T11:14:54;38.43;29.97
74946;HTU21D;63509;45.250;38.102;2023-07-20T11:17:20;38.48;29.55
74946;HTU21D;63509;45.250;38.102;2023-07-20T11:19:56;38.58;29.37
74946;HTU21D;63509;45.250;38.102;2023-07-20T11:22:23;38.55;29.04
74946;HTU21D;63509;45.250;38.102;2023-07-20T11:24:49;38.45;29.06
74946;HTU21D;63509;45.250;38.102;2023-07-20T11:27:16;38.25;29.08
74946;HTU21D;63509;45.250;38.102;2023-07-20T11:29:46;38.02;29.29
74946;HTU21D;63509;45.250;38.102;2023-07-20T11:32:12;37.88;29.26
74946;HTU21D;63509;45.250;38.102;2023-07-20T11:34:38;37.76;29.43
74946;HTU21D;63509;45.250;38.102;2023-07-20T11:37:05;37.78;29.37
74946;HTU21D;63509;45.250;38.102;2023-07-20T11:39:32;37.78;29.26
74946;HTU21D;63509;45.250;38.102;2023-07-20T11:41:58;37.75;29.29
74946;HTU21D;63509;45.250;38.102;2023-07-20T11:44:27;37.78;29.38
74946;HTU21D;63509;45.250;38.102;2023-07-20T11:47:04;37.80;29.36
74946;HTU21D;63509;45.250;38.102;2023-07-20T11:49:35;37.74;29.44
74946;HTU21D;63509;45.250;38.102;2023-07-20T11:52:03;37.82;29.19
74946;HTU21D;63509;45.250;38.102;2023-07-20T11:54:30;37.92;28.97
74946;HTU21D;63509;45.250;38.102;2023-07-20T11:57:01;37.84;29.10
74946;HTU21D;63509;45.250;38.102;2023-07-20T11:59:27;37.70;28.74
74946;HTU21D;63509;45.250;38.102;2023-07-20T12:01:53;37.45;28.71
74946;HTU21D;63509;45.250;38.102;2023-07-20T12:04:22;37.25;28.96
74946;HTU21D;63509;45.250;38.102;2023-07-20T12:06:49;37.11;28.86
74946;HTU21D;63509;45.250;38.102;2023-07-20T12:09:16;37.00;28.89
74946;HTU21D;63509;45.250;38.102;2023-07-20T12:11:44;36.83;29.04
74946;HTU21D;63509;45.250;38.102;2023-07-20T12:14:14;36.76;29.07
74946;HTU21D;63509;45.250;38.102;2023-07-20T12:16:41;36.72;29.06
74946;HTU21D;63509;45.250;38.102;2023-07-20T12:19:09;36.63;29.08
74946;HTU21D;63509;45.250;38.102;2023-07-20T12:21:36;36.45;29.12
74946;HTU21D;63509;45.250;38.102;2023-07-20T12:24:04;36.25;29.27
74946;HTU21D;63509;45.250;38.102;2023-07-20T12:26:32;36.11;29.22
74946;HTU21D;63509;45.250;38.102;2023-07-20T12:28:59;35.94;29.39
74946;HTU21D;63509;45.250;38.102;2023-07-20T12:31:26;35.84;29.53
74946;HTU21D;63509;45.250;38.102;2023-07-20T12:34:02;35.85;29.77
74946;HTU21D;63509;45.250;38.102;2023-07-20T12:36:28;35.85;29.48
74946;HTU21D;63509;45.250;38.102;2023-07-20T12:38:54;35.71;29.43
74946;HTU21D;63509;45.250;38.102;2023-07-20T12:41:21;35.56;29.54
74946;HTU21D;63509;45.250;38.102;2023-07-20T12:43:47;35.55;29.61
74946;HTU21D;63509;45.250;38.102;2023-07-20T12:46:14;35.50;30.47
74946;HTU21D;63509;45.250;38.102;2023-07-20T12:48:41;35.49;30.00
74946;HTU21D;63509;45.250;38.102;2023-07-20T12:51:08;35.48;29.94
74946;HTU21D;63509;45.250;38.102;2023-07-20T12:53:35;35.53;29.92
74946;HTU21D;63509;45.250;38.102;2023-07-20T12:56:02;35.62;29.84
74946;HTU21D;63509;45.250;38.102;2023-07-20T12:58:28;35.70;29.80
74946;HTU21D;63509;45.250;38.102;2023-07-20T13:00:55;35.82;29.55
74946;HTU21D;63509;45.250;38.102;2023-07-20T13:03:24;35.83;29.41
74946;HTU21D;63509;45.250;38.102;2023-07-20T13:05:50;35.70;29.43
74946;HTU21D;63509;45.250;38.102;2023-07-20T13:08:17;35.65;29.48
74946;HTU21D;63509;45.250;38.102;2023-07-20T13:10:43;35.65;29.43
74946;HTU21D;63509;45.250;38.102;2023-07-20T13:13:10;35.68;29.41
74946;HTU21D;63509;45.250;38.102;2023-07-20T13:15:44;35.73;29.53
74946;HTU21D;63509;45.250;38.102;2023-07-20T13:18:12;35.70;29.36
74946;HTU21D;63509;45.250;38.102;2023-07-20T13:20:38;35.70;29.33
74946;HTU21D;63509;45.250;38.102;2023-07-20T13:23:05;35.68;29.29
74946;HTU21D;63509;45.250;38.102;2023-07-20T13:25:31;35.63;29.35
74946;HTU21D;63509;45.250;38.102;2023-07-20T13:27:57;35.59;29.34
74946;HTU21D;63509;45.250;38.102;2023-07-20T13:30:23;35.63;29.21
74946;HTU21D;63509;45.250;38.102;2023-07-20T13:32:50;35.67;29.06
74946;HTU21D;63509;45.250;38.102;2023-07-20T13:35:16;35.67;29.03
74946;HTU21D;63509;45.250;38.102;2023-07-20T13:37:43;35.62;29.08
74946;HTU21D;63509;45.250;38.102;2023-07-20T13:40:09;35.50;29.03
74946;HTU21D;63509;45.250;38.102;2023-07-20T13:42:39;35.38;29.15
74946;HTU21D;63509;45.250;38.102;2023-07-20T13:45:09;35.26;29.31
74946;HTU21D;63509;45.250;38.102;2023-07-20T13:47:35;35.14;29.22
74946;HTU21D;63509;45.250;38.102;2023-07-20T13:50:02;35.01;29.19
74946;HTU21D;63509;45.250;38.102;2023-07-20T13:52:28;34.82;29.13
74946;HTU21D;63509;45.250;38.102;2023-07-20T13:54:54;34.53;29.35
74946;HTU21D;63509;45.250;38.102;2023-07-20T13:57:21;34.40;29.52
74946;HTU21D;63509;45.250;38.102;2023-07-20T13:59:49;34.32;29.64
74946;HTU21D;63509;45.250;38.102;2023-07-20T14:02:15;34.20;29.70
74946;HTU21D;63509;45.250;38.102;2023-07-20T14:04:41;34.11;29.75
74946;HTU21D;63509;45.250;38.102;2023-07-20T14:07:08;34.09;29.78
74946;HTU21D;63509;45.250;38.102;2023-07-20T14:09:34;34.04;29.83
74946;HTU21D;63509;45.250;38.102;2023-07-20T14:12:00;33.99;29.88
74946;HTU21D;63509;45.250;38.102;2023-07-20T14:14:26;33.91;29.84
74946;HTU21D;63509;45.250;38.102;2023-07-20T14:16:52;33.85;29.89
74946;HTU21D;63509;45.250;38.102;2023-07-20T14:19:18;33.82;29.82
74946;HTU21D;63509;45.250;38.102;2023-07-20T14:21:44;33.80;29.83
74946;HTU21D;63509;45.250;38.102;2023-07-20T14:24:11;33.75;29.91
74946;HTU21D;63509;45.250;38.102;2023-07-20T14:26:37;33.72;29.91
74946;HTU21D;63509;45.250;38.102;2023-07-20T14:29:03;33.70;29.98
74946;HTU21D;63509;45.250;38.102;2023-07-20T14:31:30;33.60;29.89
74946;HTU21D;63509;45.250;38.102;2023-07-20T14:33:56;33.45;29.98
74946;HTU21D;63509;45.250;38.102;2023-07-20T14:36:22;33.36;30.04
74946;HTU21D;63509;45.250;38.102;2023-07-20T14:38:48;33.29;30.15
74946;HTU21D;63509;45.250;38.102;2023-07-20T14:41:15;33.20;30.21
74946;HTU21D;63509;45.250;38.102;2023-07-20T14:43:41;33.11;30.20
74946;HTU21D;63509;45.250;38.102;2023-07-20T14:46:07;32.99;30.25
74946;HTU21D;63509;45.250;38.102;2023-07-20T14:48:33;32.90;30.34
74946;HTU21D;63509;45.250;38.102;2023-07-20T14:50:59;32.81;30.38
74946;HTU21D;63509;45.250;38.102;2023-07-20T14:53:26;32.71;30.45
74946;HTU21D;63509;45.250;38.102;2023-07-20T14:55:59;32.55;30.64
74946;HTU21D;63509;45.250;38.102;2023-07-20T14:58:25;32.42;30.68
74946;HTU21D;63509;45.250;38.102;2023-07-20T15:00:52;32.29;30.74
74946;HTU21D;63509;45.250;38.102;2023-07-20T15:03:19;32.19;31.26
74946;HTU21D;63509;45.250;38.102;2023-07-20T15:05:45;32.07;31.18
74946;HTU21D;63509;45.250;38.102;2023-07-20T15:08:11;31.96;31.22
74946;HTU21D;63509;45.250;38.102;2023-07-20T15:10:37;31.86;31.32
74946;HTU21D;63509;45.250;38.102;2023-07-20T15:13:03;31.76;31.38
74946;HTU21D;63509;45.250;38.102;2023-07-20T15:15:31;31.65;31.45
74946;HTU21D;63509;45.250;38.102;2023-07-20T15:17:57;31.56;31.49
74946;HTU21D;63509;45.250;38.102;2023-07-20T15:20:23;31.49;31.57
74946;HTU21D;63509;45.250;38.102;2023-07-20T15:22:49;31.41;31.76